createdAt,value
2023-06-19T00:01:18.883Z,7.97
2023-06-19T00:05:24.273Z,7.70
2023-06-19T00:09:28.399Z,7.78
2023-06-19T00:13:31.164Z,7.65
2023-06-19T00:17:33.943Z,7.60
2023-06-19T00:21:38.482Z,7.53
2023-06-19T00:25:42.937Z,7.85
2023-06-19T00:29:45.712Z,7.35
2023-06-19T00:33:49.228Z,7.50
2023-06-19T00:37:52.020Z,7.35
2023-06-19T00:41:56.587Z,7.40
2023-06-19T00:46:00.316Z,7.25
2023-06-19T00:50:03.234Z,7.30
2023-06-19T00:54:06.582Z,6.90
2023-06-19T00:58:11.392Z,7.30
2023-06-19T01:02:14.921Z,7.50
2023-06-19T01:06:24.232Z,7.15
2023-06-19T01:10:30.178Z,7.07
2023-06-19T01:14:39.993Z,7.30
2023-06-19T01:18:43.898Z,7.00
2023-06-19T01:22:48.165Z,6.90
2023-06-19T01:26:51.103Z,6.90
2023-06-19T01:30:56.982Z,7.32
2023-06-19T01:35:03.085Z,7.53
2023-06-19T01:39:08.672Z,7.25
2023-06-19T01:43:12.965Z,6.95
2023-06-19T01:47:20.742Z,7.15
2023-06-19T01:51:23.724Z,7.15
2023-06-19T01:55:28.016Z,7.63
2023-06-19T01:59:30.863Z,7.20
2023-06-19T02:03:33.801Z,7.63
2023-06-19T02:07:36.726Z,7.40
2023-06-19T02:11:41.160Z,7.63
2023-06-19T02:15:44.078Z,7.55
2023-06-19T02:19:46.832Z,6.93
2023-06-19T02:23:49.697Z,7.35
2023-06-19T02:27:53.811Z,8.00
2023-06-19T02:31:57.731Z,7.25
2023-06-19T02:36:00.696Z,8.10
2023-06-19T02:40:04.449Z,7.65
2023-06-19T02:44:10.584Z,8.00
2023-06-19T02:48:13.376Z,7.97
2023-06-19T02:52:16.403Z,7.45
2023-06-19T02:56:19.402Z,7.38
2023-06-19T03:00:24.218Z,7.80
2023-06-19T03:04:29.371Z,7.63
2023-06-19T03:08:32.675Z,7.95
2023-06-19T03:12:35.540Z,7.85
2023-06-19T03:16:40.222Z,8.05
2023-06-19T03:20:43.402Z,7.00
2023-06-19T03:24:46.886Z,7.78
2023-06-19T03:28:55.016Z,7.22
2023-06-19T03:33:01.146Z,7.38
2023-06-19T03:37:17.343Z,7.43
2023-06-19T03:41:20.369Z,7.05
2023-06-19T03:45:23.915Z,7.57
2023-06-19T03:49:28.111Z,7.93
2023-06-19T03:53:30.948Z,7.28
2023-06-19T03:57:33.786Z,7.78
2023-06-19T04:01:36.725Z,8.07
2023-06-19T04:05:42.942Z,8.23
2023-06-19T04:09:48.342Z,8.13
2023-06-19T04:13:51.362Z,8.30
2023-06-19T04:17:54.421Z,8.07
2023-06-19T04:21:58.597Z,8.40
2023-06-19T04:26:01.413Z,8.10
2023-06-19T04:30:07.637Z,8.27
2023-06-19T04:34:10.658Z,8.35
2023-06-19T04:38:15.806Z,8.68
2023-06-19T04:42:20.529Z,9.38
2023-06-19T04:46:23.444Z,12.02
2023-06-19T04:50:26.410Z,8.30
2023-06-19T04:54:33.671Z,7.78
2023-06-19T04:58:36.452Z,7.60
2023-06-19T05:02:39.682Z,6.90
2023-06-19T05:06:43.781Z,7.32
2023-06-19T05:10:48.029Z,6.85
2023-06-19T05:14:50.824Z,6.93
2023-06-19T05:18:53.651Z,7.43
2023-06-19T05:22:56.830Z,7.35
2023-06-19T05:27:01.316Z,7.40
2023-06-19T05:31:05.700Z,7.15
2023-06-19T05:35:09.323Z,7.30
2023-06-19T05:39:12.108Z,7.25
2023-06-19T05:43:16.325Z,7.68
2023-06-19T05:47:22.553Z,8.43
2023-06-19T05:51:25.421Z,7.45
2023-06-19T05:55:28.487Z,7.45
2023-06-19T05:59:32.694Z,7.10
2023-06-19T06:03:37.022Z,6.88
2023-06-19T06:07:41.492Z,6.20
2023-06-19T06:11:44.915Z,5.85
2023-06-19T06:15:49.108Z,5.72
2023-06-19T06:19:52.094Z,5.45
2023-06-19T06:23:58.000Z,5.50
2023-06-19T06:28:01.132Z,4.90
2023-06-19T06:32:09.860Z,5.25
2023-06-19T06:36:22.254Z,5.07
2023-06-19T06:40:32.766Z,5.00
2023-06-19T06:44:35.585Z,5.18
2023-06-19T06:48:40.779Z,5.30
2023-06-19T06:52:43.636Z,4.65
2023-06-19T06:56:48.912Z,4.70
2023-06-19T07:00:52.428Z,5.28
2023-06-19T07:04:57.375Z,5.25
2023-06-19T07:09:00.244Z,5.18
2023-06-19T07:13:03.079Z,5.05
2023-06-19T07:17:08.347Z,5.28
2023-06-19T07:21:14.653Z,5.00
2023-06-19T07:25:17.449Z,5.45
2023-06-19T07:29:20.325Z,5.18
2023-06-19T07:33:23.120Z,5.75
2023-06-19T07:37:27.902Z,5.70
2023-06-19T07:41:30.729Z,5.53
2023-06-19T07:45:33.616Z,5.90
2023-06-19T07:49:38.779Z,5.95
2023-06-19T07:53:44.391Z,5.57
2023-06-19T07:57:47.249Z,4.60
2023-06-19T08:01:50.371Z,4.82
2023-06-19T08:05:53.897Z,4.57
2023-06-19T08:10:08.170Z,4.47
2023-06-19T08:14:15.729Z,4.65
2023-06-19T08:18:18.589Z,4.70
2023-06-19T08:22:22.604Z,4.65
2023-06-19T08:26:27.046Z,4.85
2023-06-19T08:30:29.953Z,4.30
2023-06-19T08:34:32.940Z,4.30
2023-06-19T08:38:35.773Z,4.20
2023-06-19T08:42:40.839Z,3.97
2023-06-19T08:46:43.767Z,3.90
2023-06-19T08:50:46.660Z,3.92
2023-06-19T08:54:49.397Z,4.07
2023-06-19T08:58:53.536Z,3.80
2023-06-19T09:07:10.411Z,3.80
2023-06-19T09:11:22.125Z,3.55
2023-06-19T09:15:29.868Z,2.53
2023-06-19T09:19:36.030Z,2.78
2023-06-19T09:23:39.218Z,2.75
2023-06-19T09:27:43.765Z,2.70
2023-06-19T09:31:47.901Z,2.35
2023-06-19T09:35:51.963Z,2.58
2023-06-19T09:39:56.954Z,2.40
2023-06-19T09:44:01.064Z,2.40
2023-06-19T09:48:06.981Z,2.45
2023-06-19T09:52:28.861Z,2.15
2023-06-19T09:56:39.306Z,2.22
2023-06-19T10:00:42.336Z,3.10
2023-06-19T10:04:48.121Z,2.70
2023-06-19T10:08:53.287Z,2.42
2023-06-19T10:12:57.494Z,2.40
2023-06-19T10:17:10.499Z,2.67
2023-06-19T10:21:19.393Z,2.30
2023-06-19T10:25:23.939Z,2.47
2023-06-19T10:29:28.369Z,3.00
2023-06-19T10:33:33.494Z,3.10
2023-06-19T10:37:37.623Z,3.20
2023-06-19T10:41:42.422Z,2.90
2023-06-19T10:45:45.288Z,2.97
2023-06-19T10:49:48.226Z,3.00
2023-06-19T10:53:52.363Z,2.88
2023-06-19T10:57:55.176Z,2.88
2023-06-19T11:01:58.061Z,3.00
2023-06-19T11:06:01.126Z,2.85
2023-06-19T11:10:06.592Z,2.78
2023-06-19T11:14:10.308Z,2.78
2023-06-19T11:18:13.679Z,2.92
2023-06-19T11:22:16.455Z,2.80
2023-06-19T11:26:20.615Z,2.70
2023-06-19T11:30:33.053Z,2.50
2023-06-19T11:34:37.855Z,2.40
2023-06-19T11:38:42.414Z,2.63
2023-06-19T11:42:51.183Z,2.08
2023-06-19T11:46:59.647Z,2.58
2023-06-19T11:51:02.658Z,2.50
2023-06-19T11:55:06.223Z,2.70
2023-06-19T11:59:10.319Z,2.50
2023-06-19T12:03:13.258Z,2.63
2023-06-19T12:07:16.694Z,2.35
2023-06-19T12:11:19.529Z,2.10
2023-06-19T12:15:23.974Z,3.10
2023-06-19T12:19:28.679Z,2.55
2023-06-19T12:23:31.653Z,2.60
2023-06-19T12:27:34.838Z,2.40
2023-06-19T12:31:39.119Z,2.30
2023-06-19T12:35:43.036Z,2.50
2023-06-19T12:39:45.816Z,2.75
2023-06-19T12:43:48.822Z,2.60
2023-06-19T12:47:55.179Z,2.60
2023-06-19T12:51:59.403Z,2.55
2023-06-19T12:56:04.691Z,3.08
2023-06-19T13:00:13.868Z,2.60
2023-06-19T13:04:18.304Z,2.72
2023-06-19T13:08:21.253Z,3.25
2023-06-19T13:12:24.783Z,2.75
2023-06-19T13:16:44.618Z,2.70
2023-06-19T13:20:50.738Z,2.90
2023-06-19T13:24:53.681Z,19.48
2023-06-19T13:28:59.770Z,3.00
2023-06-19T13:33:04.903Z,2.90
2023-06-19T13:37:10.344Z,2.83
2023-06-19T13:41:13.129Z,3.22
2023-06-19T13:45:16.004Z,3.45
2023-06-19T13:49:18.813Z,3.25
2023-06-19T13:53:23.023Z,3.72
2023-06-19T13:57:26.266Z,3.60
2023-06-19T14:01:29.327Z,3.63
2023-06-19T14:05:33.846Z,3.30
2023-06-19T14:09:38.188Z,3.28
2023-06-19T14:13:41.066Z,3.45
2023-06-19T14:17:44.124Z,3.30
2023-06-19T14:21:46.939Z,3.25
2023-06-19T14:25:51.136Z,3.40
2023-06-19T14:29:54.710Z,3.20
2023-06-19T14:33:57.494Z,3.30
2023-06-19T14:38:00.369Z,3.17
2023-06-19T14:42:04.941Z,3.05
2023-06-19T14:46:07.781Z,3.15
2023-06-19T14:50:10.954Z,3.20
2023-06-19T14:54:14.265Z,3.60
2023-06-19T14:58:18.456Z,2.92
2023-06-19T15:02:21.425Z,3.15
2023-06-19T15:06:24.255Z,3.35
2023-06-19T15:10:27.484Z,3.38
2023-06-19T15:14:32.158Z,3.50
2023-06-19T15:18:35.293Z,3.35
2023-06-19T15:22:38.703Z,3.30
2023-06-19T15:26:41.991Z,3.60
2023-06-19T15:30:46.229Z,3.58
2023-06-19T15:34:49.558Z,3.13
2023-06-19T15:38:52.407Z,3.05
2023-06-19T15:42:55.267Z,3.35
2023-06-19T15:47:00.192Z,3.58
2023-06-19T15:51:04.420Z,3.28
2023-06-19T15:55:08.239Z,3.88
2023-06-19T15:59:11.180Z,3.55
2023-06-19T16:03:15.487Z,3.17
2023-06-19T16:07:18.637Z,3.72
2023-06-19T16:11:21.429Z,3.30
2023-06-19T16:15:28.825Z,3.40
2023-06-19T16:19:33.209Z,3.50
2023-06-19T16:23:36.879Z,3.60
2023-06-19T16:27:39.751Z,3.17
2023-06-19T16:31:45.483Z,3.10
2023-06-19T16:35:51.406Z,3.72
2023-06-19T16:39:54.283Z,3.47
2023-06-19T16:43:57.192Z,3.15
2023-06-19T16:48:00.183Z,3.65
2023-06-19T16:52:04.576Z,3.20
2023-06-19T16:56:07.373Z,3.33
2023-06-19T17:00:12.767Z,3.58
2023-06-19T17:04:15.637Z,3.60
2023-06-19T17:08:19.806Z,3.95
2023-06-19T17:12:22.646Z,3.72
2023-06-19T17:16:25.484Z,3.78
2023-06-19T17:20:28.713Z,3.78
2023-06-19T17:24:32.952Z,3.70
2023-06-19T17:28:35.831Z,4.10
2023-06-19T17:32:39.254Z,3.95
2023-06-19T17:36:42.199Z,3.90
2023-06-19T17:40:46.415Z,3.90
2023-06-19T17:44:49.293Z,3.70
2023-06-19T17:48:52.185Z,4.47
2023-06-19T17:52:55.035Z,4.18
2023-06-19T17:56:59.504Z,3.92
2023-06-19T18:01:02.302Z,4.15
2023-06-19T18:05:05.526Z,4.10
2023-06-19T18:09:08.940Z,4.43
2023-06-19T18:13:13.408Z,3.90
2023-06-19T18:17:16.426Z,4.57
2023-06-19T18:21:19.381Z,4.53
2023-06-19T18:25:22.574Z,4.63
2023-06-19T18:29:26.973Z,4.45
2023-06-19T18:33:29.776Z,4.38
2023-06-19T18:37:32.605Z,4.53
2023-06-19T18:41:35.507Z,4.72
2023-06-19T18:45:39.753Z,4.75
2023-06-19T18:49:43.111Z,4.88
2023-06-19T18:53:46.265Z,4.90
2023-06-19T18:57:49.881Z,4.70
2023-06-19T19:01:54.225Z,4.47
2023-06-19T19:05:57.273Z,4.50
2023-06-19T19:10:00.279Z,5.20
2023-06-19T19:14:03.508Z,5.00
2023-06-19T19:18:09.761Z,4.60
2023-06-19T19:22:12.871Z,4.65
2023-06-19T19:26:15.909Z,5.00
2023-06-19T19:30:19.097Z,4.88
2023-06-19T19:34:26.149Z,5.10
2023-06-19T19:38:29.466Z,4.93
2023-06-19T19:42:32.523Z,4.70
2023-06-19T19:46:35.557Z,4.88
2023-06-19T19:50:40.104Z,5.30
2023-06-19T19:54:43.245Z,5.70
2023-06-19T19:58:46.133Z,4.88
2023-06-19T20:02:49.473Z,4.97
2023-06-19T20:06:53.817Z,5.53
2023-06-19T20:10:56.864Z,5.10
2023-06-19T20:14:59.940Z,7.07
2023-06-19T20:19:02.998Z,6.45
2023-06-19T20:23:08.083Z,7.15
2023-06-19T20:27:17.954Z,5.80
2023-06-19T20:31:22.107Z,5.22
2023-06-19T20:35:25.429Z,5.60
2023-06-19T20:39:30.576Z,5.15
2023-06-19T20:43:36.271Z,4.85
2023-06-19T20:47:39.500Z,5.18
2023-06-19T20:51:42.368Z,5.75
2023-06-19T20:55:47.029Z,5.60
2023-06-19T20:59:50.412Z,5.60
2023-06-19T21:03:54.111Z,5.07
2023-06-19T21:07:57.246Z,5.20
2023-06-19T21:12:01.447Z,5.10
2023-06-19T21:16:08.029Z,5.38
2023-06-19T21:20:11.510Z,5.78
2023-06-19T21:24:17.565Z,5.13
2023-06-19T21:28:22.559Z,5.25
2023-06-19T21:32:26.355Z,5.28
2023-06-19T21:36:29.670Z,5.28
2023-06-19T21:40:32.425Z,4.90
2023-06-19T21:44:39.236Z,5.85
2023-06-19T21:48:42.706Z,5.57
2023-06-19T21:52:52.521Z,5.57
2023-06-19T21:56:56.815Z,6.15
2023-06-19T22:01:02.898Z,5.80
2023-06-19T22:05:09.613Z,5.65
2023-06-19T22:09:12.808Z,5.45
2023-06-19T22:13:16.791Z,5.55
2023-06-19T22:17:21.160Z,6.75
2023-06-19T22:21:23.926Z,6.57
2023-06-19T22:25:26.982Z,5.82
2023-06-19T22:29:29.849Z,6.40
2023-06-19T22:33:34.096Z,6.78
2023-06-19T22:37:40.418Z,6.47
2023-06-19T22:41:44.160Z,6.03
2023-06-19T22:45:50.245Z,5.80
2023-06-19T22:49:55.281Z,5.50
2023-06-19T22:53:58.677Z,5.88
2023-06-19T22:58:02.038Z,6.57
2023-06-19T23:02:05.666Z,5.53
2023-06-19T23:06:10.113Z,5.70
2023-06-19T23:10:13.454Z,6.05
2023-06-19T23:14:16.936Z,5.70
2023-06-19T23:18:20.454Z,5.20
2023-06-19T23:22:28.400Z,5.28
2023-06-19T23:26:31.563Z,5.03
2023-06-19T23:30:34.590Z,5.30
2023-06-19T23:34:37.358Z,5.93
2023-06-19T23:38:41.794Z,5.18
2023-06-19T23:42:44.547Z,5.25
2023-06-19T23:46:47.370Z,5.22
2023-06-19T23:50:50.946Z,5.05
2023-06-19T23:54:55.051Z,5.13
2023-06-19T23:58:57.798Z,5.18
